Flugplatz Bischofsberg (UL)

Hier findest Du alle Informationen zum Flugplatz Bischofsberg (UL).

Informationen für Piloten zum Flugplatz Bischofsberg

Hier findest Du alle relevanten Informationen, die Du als Pilot benötigst, um Bischofsberg anzufliegen.

Flugplatz: Bischofsberg ICAO-Code: UL Flugplatz
Frequenz Turm: 123.35 Mhz GAFOR Gebiet: 47
Frequenz Ground: 123.35 Mhz Mogas: ja
Platzrunde: N 0 ft Landegebühr: 3,00 €
Platzhöhe: - Sunrise: 04:05 Uhr UTC
Pisten: 08/26 - 540 m x 30 m, GRAS Sunset: 18:40 Uhr UTC

Mitglieder, die in Bischofsberg fliegen

Flugwetter am Flugplatz Bischofsberg

Die METAR Information stammen aus EDDE (76.97 km entfernt).

METAR Code:
2022/07/10 17:20
EDDE 101720Z AUTO 30011KT 9999 FEW027 SCT033 OVC049 15/09 Q1022 NOSIG

Flugschulen am Flugplatz Bischofsberg

Am Flugplatz Bischofsberg gibt es leider keine Flugschule.

Benachbarte Flugplätze und Flugschulen

Es gibt 14 weitere Flugplätze in einem Umkreis von 50 km um den Flugplatz Bischofsberg.

Jetzt anmelden

Passwort vergessen

Umfrage Archiv

Sendet Ihr ADS-B und/oder FLARM?

Ja
83.4 %
Nein
16.6 %
Stimmen: 199 | Diskussion
Anzeige: Roland Aircraft
Statistik Alle Mitglieder

Aktuell sind 36 Besucher online, davon 5 Mitglieder und 31 Gäste.


Mitglieder online:
hennes  aviatrix  slintes  Pink Panther  forester 

Anzeige: ULPower Aero Engines Anzeige: Pocket FMS